sensor_id;sensor_type;location;lat;lon;timestamp;P1;durP1;ratioP1;P2;durP2;ratioP2
11191;SDS011;5652;48.406;10.820;2022-07-17T00:01:36;6.13;;;3.60;;
11191;SDS011;5652;48.406;10.820;2022-07-17T00:04:04;5.03;;;2.97;;
11191;SDS011;5652;48.406;10.820;2022-07-17T00:06:31;6.10;;;3.30;;
11191;SDS011;5652;48.406;10.820;2022-07-17T00:08:58;4.00;;;2.80;;
11191;SDS011;5652;48.406;10.820;2022-07-17T00:11:25;5.10;;;2.97;;
11191;SDS011;5652;48.406;10.820;2022-07-17T00:13:52;5.20;;;3.03;;
11191;SDS011;5652;48.406;10.820;2022-07-17T00:16:21;5.25;;;3.03;;
11191;SDS011;5652;48.406;10.820;2022-07-17T00:18:48;4.20;;;3.10;;
11191;SDS011;5652;48.406;10.820;2022-07-17T00:21:15;3.63;;;3.25;;
11191;SDS011;5652;48.406;10.820;2022-07-17T00:23:42;6.68;;;3.35;;
11191;SDS011;5652;48.406;10.820;2022-07-17T00:26:09;4.00;;;3.20;;
11191;SDS011;5652;48.406;10.820;2022-07-17T00:28:36;3.80;;;2.90;;
11191;SDS011;5652;48.406;10.820;2022-07-17T00:31:03;5.05;;;3.40;;
11191;SDS011;5652;48.406;10.820;2022-07-17T00:33:32;6.65;;;3.30;;
11191;SDS011;5652;48.406;10.820;2022-07-17T00:35:59;6.65;;;3.50;;
11191;SDS011;5652;48.406;10.820;2022-07-17T00:38:26;7.38;;;3.50;;
11191;SDS011;5652;48.406;10.820;2022-07-17T00:40:54;4.50;;;3.20;;
11191;SDS011;5652;48.406;10.820;2022-07-17T00:43:21;4.88;;;3.00;;
11191;SDS011;5652;48.406;10.820;2022-07-17T00:45:53;5.20;;;2.80;;
11191;SDS011;5652;48.406;10.820;2022-07-17T00:48:21;4.68;;;2.70;;
11191;SDS011;5652;48.406;10.820;2022-07-17T00:50:50;3.83;;;2.70;;
11191;SDS011;5652;48.406;10.820;2022-07-17T00:53:17;5.13;;;3.38;;
11191;SDS011;5652;48.406;10.820;2022-07-17T00:55:45;4.88;;;3.20;;
11191;SDS011;5652;48.406;10.820;2022-07-17T00:58:13;6.32;;;3.15;;
11191;SDS011;5652;48.406;10.820;2022-07-17T01:00:42;5.38;;;3.20;;
11191;SDS011;5652;48.406;10.820;2022-07-17T01:03:09;5.10;;;3.67;;
11191;SDS011;5652;48.406;10.820;2022-07-17T01:05:36;4.70;;;3.65;;
11191;SDS011;5652;48.406;10.820;2022-07-17T01:08:05;5.43;;;3.70;;
11191;SDS011;5652;48.406;10.820;2022-07-17T01:10:32;4.90;;;3.80;;
11191;SDS011;5652;48.406;10.820;2022-07-17T01:12:59;4.50;;;3.38;;
11191;SDS011;5652;48.406;10.820;2022-07-17T01:15:26;6.80;;;3.63;;
11191;SDS011;5652;48.406;10.820;2022-07-17T01:17:55;5.20;;;3.60;;
11191;SDS011;5652;48.406;10.820;2022-07-17T01:20:22;5.57;;;3.40;;
11191;SDS011;5652;48.406;10.820;2022-07-17T01:22:51;3.58;;;3.10;;
11191;SDS011;5652;48.406;10.820;2022-07-17T01:25:19;5.78;;;3.38;;
11191;SDS011;5652;48.406;10.820;2022-07-17T01:27:46;4.10;;;3.10;;
11191;SDS011;5652;48.406;10.820;2022-07-17T01:30:14;6.05;;;3.28;;
11191;SDS011;5652;48.406;10.820;2022-07-17T01:32:41;5.43;;;3.70;;
11191;SDS011;5652;48.406;10.820;2022-07-17T01:35:09;5.65;;;3.50;;
11191;SDS011;5652;48.406;10.820;2022-07-17T01:37:37;4.50;;;3.30;;
11191;SDS011;5652;48.406;10.820;2022-07-17T01:40:06;4.85;;;3.47;;
11191;SDS011;5652;48.406;10.820;2022-07-17T01:42:34;4.00;;;3.42;;
11191;SDS011;5652;48.406;10.820;2022-07-17T01:45:01;4.85;;;3.50;;
11191;SDS011;5652;48.406;10.820;2022-07-17T01:47:28;5.35;;;3.45;;
11191;SDS011;5652;48.406;10.820;2022-07-17T01:49:56;6.10;;;4.03;;
11191;SDS011;5652;48.406;10.820;2022-07-17T01:52:23;4.68;;;3.55;;
11191;SDS011;5652;48.406;10.820;2022-07-17T01:54:51;6.47;;;3.85;;
11191;SDS011;5652;48.406;10.820;2022-07-17T01:57:20;4.80;;;3.60;;
11191;SDS011;5652;48.406;10.820;2022-07-17T01:59:47;5.60;;;4.20;;
11191;SDS011;5652;48.406;10.820;2022-07-17T02:02:14;5.38;;;4.07;;
11191;SDS011;5652;48.406;10.820;2022-07-17T02:04:42;6.43;;;3.90;;
11191;SDS011;5652;48.406;10.820;2022-07-17T02:07:09;5.70;;;4.00;;
11191;SDS011;5652;48.406;10.820;2022-07-17T02:09:36;4.72;;;3.83;;
11191;SDS011;5652;48.406;10.820;2022-07-17T02:12:03;4.97;;;3.80;;
11191;SDS011;5652;48.406;10.820;2022-07-17T02:14:32;6.22;;;4.10;;
11191;SDS011;5652;48.406;10.820;2022-07-17T02:17:00;6.22;;;3.80;;
11191;SDS011;5652;48.406;10.820;2022-07-17T02:19:27;5.25;;;4.00;;
11191;SDS011;5652;48.406;10.820;2022-07-17T02:21:54;5.18;;;4.15;;
11191;SDS011;5652;48.406;10.820;2022-07-17T02:24:21;6.65;;;4.00;;
11191;SDS011;5652;48.406;10.820;2022-07-17T02:26:48;5.50;;;4.07;;
11191;SDS011;5652;48.406;10.820;2022-07-17T02:29:16;6.10;;;3.97;;
11191;SDS011;5652;48.406;10.820;2022-07-17T02:31:44;4.72;;;3.97;;
11191;SDS011;5652;48.406;10.820;2022-07-17T02:34:11;6.85;;;3.90;;
11191;SDS011;5652;48.406;10.820;2022-07-17T02:36:39;5.25;;;4.15;;
11191;SDS011;5652;48.406;10.820;2022-07-17T02:39:06;5.90;;;4.40;;
11191;SDS011;5652;48.406;10.820;2022-07-17T02:41:33;7.00;;;4.50;;
11191;SDS011;5652;48.406;10.820;2022-07-17T02:44:00;4.57;;;3.63;;
11191;SDS011;5652;48.406;10.820;2022-07-17T02:46:27;7.45;;;4.40;;
11191;SDS011;5652;48.406;10.820;2022-07-17T02:48:55;4.50;;;3.80;;
11191;SDS011;5652;48.406;10.820;2022-07-17T02:51:22;4.38;;;3.88;;
11191;SDS011;5652;48.406;10.820;2022-07-17T02:53:49;6.43;;;4.05;;
11191;SDS011;5652;48.406;10.820;2022-07-17T02:56:17;4.40;;;3.63;;
11191;SDS011;5652;48.406;10.820;2022-07-17T02:58:44;5.57;;;3.50;;
11191;SDS011;5652;48.406;10.820;2022-07-17T03:01:11;4.43;;;3.67;;
11191;SDS011;5652;48.406;10.820;2022-07-17T03:03:38;4.55;;;3.50;;
11191;SDS011;5652;48.406;10.820;2022-07-17T03:06:06;4.10;;;3.65;;
11191;SDS011;5652;48.406;10.820;2022-07-17T03:08:34;5.90;;;3.63;;
11191;SDS011;5652;48.406;10.820;2022-07-17T03:11:02;5.05;;;4.30;;
11191;SDS011;5652;48.406;10.820;2022-07-17T03:13:29;7.07;;;3.92;;
11191;SDS011;5652;48.406;10.820;2022-07-17T03:15:57;5.55;;;4.10;;
11191;SDS011;5652;48.406;10.820;2022-07-17T03:18:25;5.43;;;4.10;;
11191;SDS011;5652;48.406;10.820;2022-07-17T03:20:52;5.43;;;4.10;;
11191;SDS011;5652;48.406;10.820;2022-07-17T03:23:20;4.22;;;3.53;;
11191;SDS011;5652;48.406;10.820;2022-07-17T03:25:47;7.20;;;4.05;;
11191;SDS011;5652;48.406;10.820;2022-07-17T03:28:16;5.50;;;4.30;;
11191;SDS011;5652;48.406;10.820;2022-07-17T03:30:43;5.28;;;4.30;;
11191;SDS011;5652;48.406;10.820;2022-07-17T03:33:10;6.13;;;4.73;;
11191;SDS011;5652;48.406;10.820;2022-07-17T03:35:37;5.70;;;4.22;;
11191;SDS011;5652;48.406;10.820;2022-07-17T03:38:04;5.10;;;4.40;;
11191;SDS011;5652;48.406;10.820;2022-07-17T03:40:32;7.00;;;4.82;;
11191;SDS011;5652;48.406;10.820;2022-07-17T03:42:59;6.35;;;4.90;;
11191;SDS011;5652;48.406;10.820;2022-07-17T03:45:26;5.40;;;4.45;;
11191;SDS011;5652;48.406;10.820;2022-07-17T03:47:53;6.72;;;4.63;;
11191;SDS011;5652;48.406;10.820;2022-07-17T03:50:20;5.45;;;4.50;;
11191;SDS011;5652;48.406;10.820;2022-07-17T03:52:48;7.20;;;4.40;;
11191;SDS011;5652;48.406;10.820;2022-07-17T03:55:15;5.72;;;4.65;;
11191;SDS011;5652;48.406;10.820;2022-07-17T03:57:43;7.80;;;4.85;;
11191;SDS011;5652;48.406;10.820;2022-07-17T04:00:11;5.90;;;4.68;;
11191;SDS011;5652;48.406;10.820;2022-07-17T04:02:38;5.82;;;4.65;;
11191;SDS011;5652;48.406;10.820;2022-07-17T04:05:05;4.88;;;4.38;;
11191;SDS011;5652;48.406;10.820;2022-07-17T04:07:34;5.82;;;4.70;;
11191;SDS011;5652;48.406;10.820;2022-07-17T04:10:01;5.63;;;4.22;;
11191;SDS011;5652;48.406;10.820;2022-07-17T04:12:29;6.93;;;4.10;;
11191;SDS011;5652;48.406;10.820;2022-07-17T04:14:58;4.60;;;3.80;;
11191;SDS011;5652;48.406;10.820;2022-07-17T04:17:25;4.75;;;4.15;;
11191;SDS011;5652;48.406;10.820;2022-07-17T04:19:52;6.25;;;4.10;;
11191;SDS011;5652;48.406;10.820;2022-07-17T04:22:19;5.45;;;4.22;;
11191;SDS011;5652;48.406;10.820;2022-07-17T04:24:46;4.68;;;4.03;;
11191;SDS011;5652;48.406;10.820;2022-07-17T04:27:14;5.00;;;4.10;;
11191;SDS011;5652;48.406;10.820;2022-07-17T04:29:41;4.70;;;4.03;;
11191;SDS011;5652;48.406;10.820;2022-07-17T04:32:10;5.40;;;4.55;;
11191;SDS011;5652;48.406;10.820;2022-07-17T04:34:37;6.77;;;4.37;;
11191;SDS011;5652;48.406;10.820;2022-07-17T04:37:04;6.00;;;4.30;;
11191;SDS011;5652;48.406;10.820;2022-07-17T04:39:31;6.03;;;4.28;;
11191;SDS011;5652;48.406;10.820;2022-07-17T04:41:58;6.07;;;4.30;;
11191;SDS011;5652;48.406;10.820;2022-07-17T04:44:25;5.35;;;4.50;;
11191;SDS011;5652;48.406;10.820;2022-07-17T04:46:52;5.30;;;4.60;;
11191;SDS011;5652;48.406;10.820;2022-07-17T04:49:23;7.28;;;4.22;;
11191;SDS011;5652;48.406;10.820;2022-07-17T04:51:50;6.10;;;4.18;;
11191;SDS011;5652;48.406;10.820;2022-07-17T04:54:17;4.80;;;3.90;;
11191;SDS011;5652;48.406;10.820;2022-07-17T04:56:45;5.50;;;4.10;;
11191;SDS011;5652;48.406;10.820;2022-07-17T04:59:13;4.95;;;4.03;;
11191;SDS011;5652;48.406;10.820;2022-07-17T05:01:40;4.80;;;4.07;;
11191;SDS011;5652;48.406;10.820;2022-07-17T05:04:07;5.53;;;4.10;;
11191;SDS011;5652;48.406;10.820;2022-07-17T05:06:35;5.80;;;3.90;;
11191;SDS011;5652;48.406;10.820;2022-07-17T05:09:02;5.47;;;4.28;;
11191;SDS011;5652;48.406;10.820;2022-07-17T05:11:30;5.45;;;4.10;;
11191;SDS011;5652;48.406;10.820;2022-07-17T05:13:57;4.85;;;4.03;;
11191;SDS011;5652;48.406;10.820;2022-07-17T05:16:24;6.03;;;4.30;;
11191;SDS011;5652;48.406;10.820;2022-07-17T05:18:51;6.50;;;4.25;;
11191;SDS011;5652;48.406;10.820;2022-07-17T05:21:18;5.15;;;4.10;;
11191;SDS011;5652;48.406;10.820;2022-07-17T05:23:46;5.25;;;4.10;;
11191;SDS011;5652;48.406;10.820;2022-07-17T05:26:13;6.03;;;4.32;;
11191;SDS011;5652;48.406;10.820;2022-07-17T05:28:40;6.57;;;4.15;;
11191;SDS011;5652;48.406;10.820;2022-07-17T05:31:07;5.75;;;3.88;;
11191;SDS011;5652;48.406;10.820;2022-07-17T05:33:34;5.55;;;4.15;;
11191;SDS011;5652;48.406;10.820;2022-07-17T05:36:02;4.80;;;3.85;;
11191;SDS011;5652;48.406;10.820;2022-07-17T05:38:29;5.67;;;4.10;;
11191;SDS011;5652;48.406;10.820;2022-07-17T05:40:57;7.15;;;4.35;;
11191;SDS011;5652;48.406;10.820;2022-07-17T05:43:24;7.13;;;4.15;;
11191;SDS011;5652;48.406;10.820;2022-07-17T05:45:52;5.07;;;4.00;;
11191;SDS011;5652;48.406;10.820;2022-07-17T05:48:20;6.05;;;3.95;;
11191;SDS011;5652;48.406;10.820;2022-07-17T05:50:47;5.72;;;4.25;;
11191;SDS011;5652;48.406;10.820;2022-07-17T05:53:14;4.80;;;3.70;;
11191;SDS011;5652;48.406;10.820;2022-07-17T05:55:41;5.40;;;3.80;;
11191;SDS011;5652;48.406;10.820;2022-07-17T05:58:10;6.90;;;4.03;;
11191;SDS011;5652;48.406;10.820;2022-07-17T06:00:37;5.43;;;3.60;;
11191;SDS011;5652;48.406;10.820;2022-07-17T06:03:04;4.32;;;3.53;;
11191;SDS011;5652;48.406;10.820;2022-07-17T06:05:31;6.18;;;3.47;;
11191;SDS011;5652;48.406;10.820;2022-07-17T06:07:58;5.63;;;3.80;;
11191;SDS011;5652;48.406;10.820;2022-07-17T06:10:26;4.47;;;3.30;;
11191;SDS011;5652;48.406;10.820;2022-07-17T06:12:53;4.93;;;3.53;;
11191;SDS011;5652;48.406;10.820;2022-07-17T06:15:22;6.10;;;3.78;;
11191;SDS011;5652;48.406;10.820;2022-07-17T06:17:50;5.30;;;3.70;;
11191;SDS011;5652;48.406;10.820;2022-07-17T06:20:17;4.15;;;3.42;;
11191;SDS011;5652;48.406;10.820;2022-07-17T06:22:44;4.65;;;3.42;;
11191;SDS011;5652;48.406;10.820;2022-07-17T06:25:12;5.25;;;3.42;;
11191;SDS011;5652;48.406;10.820;2022-07-17T06:27:39;6.05;;;3.53;;
11191;SDS011;5652;48.406;10.820;2022-07-17T06:30:07;3.95;;;3.30;;
11191;SDS011;5652;48.406;10.820;2022-07-17T06:32:35;4.15;;;3.20;;
11191;SDS011;5652;48.406;10.820;2022-07-17T06:35:02;4.80;;;3.35;;
11191;SDS011;5652;48.406;10.820;2022-07-17T06:37:30;4.18;;;3.13;;
11191;SDS011;5652;48.406;10.820;2022-07-17T06:39:57;4.63;;;3.15;;
11191;SDS011;5652;48.406;10.820;2022-07-17T06:42:24;6.68;;;3.70;;
11191;SDS011;5652;48.406;10.820;2022-07-17T06:44:51;5.38;;;3.20;;
11191;SDS011;5652;48.406;10.820;2022-07-17T06:47:18;3.50;;;2.80;;
11191;SDS011;5652;48.406;10.820;2022-07-17T06:49:47;5.50;;;3.07;;
11191;SDS011;5652;48.406;10.820;2022-07-17T06:52:14;3.10;;;2.38;;
11191;SDS011;5652;48.406;10.820;2022-07-17T06:54:41;4.60;;;2.70;;
11191;SDS011;5652;48.406;10.820;2022-07-17T06:57:08;4.70;;;2.90;;
11191;SDS011;5652;48.406;10.820;2022-07-17T06:59:35;4.10;;;2.30;;
11191;SDS011;5652;48.406;10.820;2022-07-17T07:02:02;2.60;;;2.00;;
11191;SDS011;5652;48.406;10.820;2022-07-17T07:04:29;3.50;;;2.35;;
11191;SDS011;5652;48.406;10.820;2022-07-17T07:06:57;3.53;;;2.22;;
11191;SDS011;5652;48.406;10.820;2022-07-17T07:09:24;4.82;;;2.40;;
11191;SDS011;5652;48.406;10.820;2022-07-17T07:11:51;5.10;;;2.28;;
11191;SDS011;5652;48.406;10.820;2022-07-17T07:14:18;2.93;;;2.03;;
11191;SDS011;5652;48.406;10.820;2022-07-17T07:16:45;3.77;;;2.43;;
11191;SDS011;5652;48.406;10.820;2022-07-17T07:19:14;5.57;;;2.30;;
11191;SDS011;5652;48.406;10.820;2022-07-17T07:21:41;2.70;;;2.20;;
11191;SDS011;5652;48.406;10.820;2022-07-17T07:24:09;3.77;;;2.33;;
11191;SDS011;5652;48.406;10.820;2022-07-17T07:26:36;3.10;;;2.13;;
11191;SDS011;5652;48.406;10.820;2022-07-17T07:29:03;2.65;;;2.17;;
11191;SDS011;5652;48.406;10.820;2022-07-17T07:31:30;4.30;;;2.30;;
11191;SDS011;5652;48.406;10.820;2022-07-17T07:33:58;4.27;;;2.20;;
11191;SDS011;5652;48.406;10.820;2022-07-17T07:36:25;3.63;;;2.20;;
11191;SDS011;5652;48.406;10.820;2022-07-17T07:38:52;3.83;;;2.17;;
11191;SDS011;5652;48.406;10.820;2022-07-17T07:41:21;3.65;;;2.13;;
11191;SDS011;5652;48.406;10.820;2022-07-17T07:43:48;3.10;;;2.28;;
11191;SDS011;5652;48.406;10.820;2022-07-17T07:46:15;2.60;;;2.20;;
11191;SDS011;5652;48.406;10.820;2022-07-17T07:48:42;2.30;;;1.90;;
11191;SDS011;5652;48.406;10.820;2022-07-17T07:51:09;2.88;;;2.17;;
11191;SDS011;5652;48.406;10.820;2022-07-17T07:53:37;3.50;;;2.17;;
11191;SDS011;5652;48.406;10.820;2022-07-17T07:56:04;3.10;;;1.98;;
11191;SDS011;5652;48.406;10.820;2022-07-17T07:58:33;3.08;;;2.10;;
11191;SDS011;5652;48.406;10.820;2022-07-17T08:01:00;3.08;;;1.98;;
11191;SDS011;5652;48.406;10.820;2022-07-17T08:03:27;2.85;;;1.90;;
11191;SDS011;5652;48.406;10.820;2022-07-17T08:05:54;2.70;;;1.92;;
11191;SDS011;5652;48.406;10.820;2022-07-17T08:08:21;2.67;;;2.20;;
11191;SDS011;5652;48.406;10.820;2022-07-17T08:10:48;3.93;;;2.00;;
11191;SDS011;5652;48.406;10.820;2022-07-17T08:13:15;3.00;;;2.10;;
11191;SDS011;5652;48.406;10.820;2022-07-17T08:15:44;5.10;;;2.10;;
11191;SDS011;5652;48.406;10.820;2022-07-17T08:18:11;3.05;;;1.90;;
11191;SDS011;5652;48.406;10.820;2022-07-17T08:20:38;2.60;;;1.83;;
11191;SDS011;5652;48.406;10.820;2022-07-17T08:23:05;4.22;;;2.00;;
11191;SDS011;5652;48.406;10.820;2022-07-17T08:25:33;3.90;;;1.90;;
11191;SDS011;5652;48.406;10.820;2022-07-17T08:28:00;2.38;;;1.70;;
11191;SDS011;5652;48.406;10.820;2022-07-17T08:30:27;4.50;;;1.90;;
11191;SDS011;5652;48.406;10.820;2022-07-17T08:32:57;2.63;;;1.90;;
11191;SDS011;5652;48.406;10.820;2022-07-17T08:35:24;2.33;;;1.80;;
11191;SDS011;5652;48.406;10.820;2022-07-17T08:37:52;3.20;;;2.08;;
11191;SDS011;5652;48.406;10.820;2022-07-17T08:40:20;2.33;;;1.90;;
11191;SDS011;5652;48.406;10.820;2022-07-17T08:42:47;3.20;;;1.90;;
11191;SDS011;5652;48.406;10.820;2022-07-17T08:45:14;2.20;;;1.73;;
11191;SDS011;5652;48.406;10.820;2022-07-17T08:47:41;3.30;;;1.80;;
11191;SDS011;5652;48.406;10.820;2022-07-17T08:50:11;2.40;;;1.80;;
11191;SDS011;5652;48.406;10.820;2022-07-17T08:52:39;2.53;;;1.63;;
11191;SDS011;5652;48.406;10.820;2022-07-17T08:55:07;3.97;;;1.77;;
11191;SDS011;5652;48.406;10.820;2022-07-17T08:57:36;2.88;;;1.60;;
11191;SDS011;5652;48.406;10.820;2022-07-17T09:00:03;3.25;;;1.70;;
11191;SDS011;5652;48.406;10.820;2022-07-17T09:02:31;3.10;;;1.70;;
11191;SDS011;5652;48.406;10.820;2022-07-17T09:04:58;2.88;;;1.77;;
11191;SDS011;5652;48.406;10.820;2022-07-17T09:07:26;5.47;;;1.92;;
11191;SDS011;5652;48.406;10.820;2022-07-17T09:09:53;3.42;;;1.80;;
11191;SDS011;5652;48.406;10.820;2022-07-17T09:12:24;2.25;;;1.70;;
11191;SDS011;5652;48.406;10.820;2022-07-17T09:14:51;3.35;;;1.85;;
11191;SDS011;5652;48.406;10.820;2022-07-17T09:17:18;2.10;;;1.70;;
11191;SDS011;5652;48.406;10.820;2022-07-17T09:19:45;3.13;;;1.90;;
11191;SDS011;5652;48.406;10.820;2022-07-17T09:22:13;2.15;;;1.70;;
11191;SDS011;5652;48.406;10.820;2022-07-17T09:24:43;3.03;;;1.70;;
11191;SDS011;5652;48.406;10.820;2022-07-17T09:27:11;3.20;;;1.63;;
11191;SDS011;5652;48.406;10.820;2022-07-17T09:29:49;2.63;;;1.80;;
11191;SDS011;5652;48.406;10.820;2022-07-17T09:32:16;2.63;;;1.95;;
11191;SDS011;5652;48.406;10.820;2022-07-17T09:34:44;2.55;;;1.60;;
11191;SDS011;5652;48.406;10.820;2022-07-17T09:37:11;2.60;;;1.80;;
11191;SDS011;5652;48.406;10.820;2022-07-17T09:39:38;2.20;;;1.70;;
11191;SDS011;5652;48.406;10.820;2022-07-17T09:42:07;2.10;;;1.70;;
11191;SDS011;5652;48.406;10.820;2022-07-17T09:44:34;2.85;;;1.75;;
11191;SDS011;5652;48.406;10.820;2022-07-17T09:47:01;2.20;;;1.90;;
11191;SDS011;5652;48.406;10.820;2022-07-17T09:49:29;3.60;;;1.88;;
11191;SDS011;5652;48.406;10.820;2022-07-17T09:51:56;4.43;;;1.60;;
11191;SDS011;5652;48.406;10.820;2022-07-17T09:54:24;2.80;;;1.70;;
11191;SDS011;5652;48.406;10.820;2022-07-17T09:56:51;3.67;;;1.90;;
11191;SDS011;5652;48.406;10.820;2022-07-17T09:59:26;1.70;;;1.60;;
11191;SDS011;5652;48.406;10.820;2022-07-17T10:01:56;2.43;;;1.87;;
11191;SDS011;5652;48.406;10.820;2022-07-17T10:04:23;1.90;;;1.70;;
11191;SDS011;5652;48.406;10.820;2022-07-17T10:06:50;2.75;;;1.75;;
11191;SDS011;5652;48.406;10.820;2022-07-17T10:09:18;2.42;;;1.83;;
11191;SDS011;5652;48.406;10.820;2022-07-17T10:11:45;2.23;;;1.80;;
11191;SDS011;5652;48.406;10.820;2022-07-17T10:14:13;2.92;;;1.50;;
11191;SDS011;5652;48.406;10.820;2022-07-17T10:16:42;2.10;;;1.80;;
11191;SDS011;5652;48.406;10.820;2022-07-17T10:19:17;2.28;;;1.70;;
11191;SDS011;5652;48.406;10.820;2022-07-17T10:21:54;2.60;;;1.80;;
11191;SDS011;5652;48.406;10.820;2022-07-17T10:24:21;3.13;;;1.75;;
11191;SDS011;5652;48.406;10.820;2022-07-17T10:26:48;1.95;;;1.58;;
11191;SDS011;5652;48.406;10.820;2022-07-17T10:29:26;2.20;;;1.50;;
11191;SDS011;5652;48.406;10.820;2022-07-17T10:31:55;1.83;;;1.50;;
11191;SDS011;5652;48.406;10.820;2022-07-17T10:34:25;2.03;;;1.67;;
11191;SDS011;5652;48.406;10.820;2022-07-17T10:37:02;3.30;;;1.60;;
11191;SDS011;5652;48.406;10.820;2022-07-17T10:39:40;2.33;;;1.60;;
11191;SDS011;5652;48.406;10.820;2022-07-17T10:42:07;3.03;;;1.77;;
11191;SDS011;5652;48.406;10.820;2022-07-17T10:44:34;2.63;;;1.80;;
11191;SDS011;5652;48.406;10.820;2022-07-17T10:47:02;1.90;;;1.60;;
11191;SDS011;5652;48.406;10.820;2022-07-17T10:49:30;1.90;;;1.60;;
11191;SDS011;5652;48.406;10.820;2022-07-17T10:51:58;2.23;;;1.67;;
11191;SDS011;5652;48.406;10.820;2022-07-17T10:54:31;2.35;;;1.63;;
11191;SDS011;5652;48.406;10.820;2022-07-17T10:57:00;3.05;;;1.60;;
11191;SDS011;5652;48.406;10.820;2022-07-17T10:59:29;2.60;;;1.60;;
11191;SDS011;5652;48.406;10.820;2022-07-17T11:01:56;2.72;;;1.90;;
11191;SDS011;5652;48.406;10.820;2022-07-17T11:04:24;2.55;;;1.90;;
11191;SDS011;5652;48.406;10.820;2022-07-17T11:07:05;1.85;;;1.70;;
11191;SDS011;5652;48.406;10.820;2022-07-17T11:09:33;2.33;;;1.73;;
11191;SDS011;5652;48.406;10.820;2022-07-17T11:12:01;2.05;;;1.60;;
11191;SDS011;5652;48.406;10.820;2022-07-17T11:14:28;1.80;;;1.50;;
11191;SDS011;5652;48.406;10.820;2022-07-17T11:16:56;5.05;;;1.80;;
11191;SDS011;5652;48.406;10.820;2022-07-17T11:19:26;2.35;;;1.80;;
11191;SDS011;5652;48.406;10.820;2022-07-17T11:21:54;2.40;;;1.60;;
11191;SDS011;5652;48.406;10.820;2022-07-17T11:24:22;2.25;;;1.70;;
11191;SDS011;5652;48.406;10.820;2022-07-17T11:26:51;2.60;;;1.65;;
11191;SDS011;5652;48.406;10.820;2022-07-17T11:29:19;1.80;;;1.50;;
11191;SDS011;5652;48.406;10.820;2022-07-17T11:31:46;1.83;;;1.65;;
11191;SDS011;5652;48.406;10.820;2022-07-17T11:34:13;2.10;;;1.40;;
11191;SDS011;5652;48.406;10.820;2022-07-17T11:36:42;2.30;;;1.60;;
11191;SDS011;5652;48.406;10.820;2022-07-17T11:39:11;2.00;;;1.60;;
11191;SDS011;5652;48.406;10.820;2022-07-17T11:41:39;2.33;;;1.60;;
11191;SDS011;5652;48.406;10.820;2022-07-17T11:44:08;2.42;;;1.50;;
11191;SDS011;5652;48.406;10.820;2022-07-17T11:46:36;2.10;;;1.50;;
11191;SDS011;5652;48.406;10.820;2022-07-17T11:49:04;2.25;;;1.48;;
11191;SDS011;5652;48.406;10.820;2022-07-17T11:51:33;1.70;;;1.50;;
11191;SDS011;5652;48.406;10.820;2022-07-17T11:54:04;2.80;;;1.50;;
11191;SDS011;5652;48.406;10.820;2022-07-17T11:56:31;2.80;;;1.60;;
11191;SDS011;5652;48.406;10.820;2022-07-17T11:58:58;2.28;;;1.60;;
11191;SDS011;5652;48.406;10.820;2022-07-17T12:01:27;2.35;;;1.70;;
11191;SDS011;5652;48.406;10.820;2022-07-17T12:03:57;2.63;;;2.00;;
11191;SDS011;5652;48.406;10.820;2022-07-17T12:06:24;3.88;;;1.50;;
11191;SDS011;5652;48.406;10.820;2022-07-17T12:08:52;3.00;;;1.60;;
11191;SDS011;5652;48.406;10.820;2022-07-17T12:11:21;1.67;;;1.50;;
11191;SDS011;5652;48.406;10.820;2022-07-17T12:13:48;2.38;;;1.70;;
11191;SDS011;5652;48.406;10.820;2022-07-17T12:16:22;2.58;;;1.63;;
11191;SDS011;5652;48.406;10.820;2022-07-17T12:18:57;2.15;;;1.65;;
11191;SDS011;5652;48.406;10.820;2022-07-17T12:21:24;3.13;;;1.53;;
11191;SDS011;5652;48.406;10.820;2022-07-17T12:23:56;3.20;;;1.63;;
11191;SDS011;5652;48.406;10.820;2022-07-17T12:26:25;2.23;;;1.80;;
11191;SDS011;5652;48.406;10.820;2022-07-17T12:28:52;2.70;;;1.52;;
11191;SDS011;5652;48.406;10.820;2022-07-17T12:31:19;1.70;;;1.60;;
11191;SDS011;5652;48.406;10.820;2022-07-17T12:33:48;3.10;;;1.67;;
11191;SDS011;5652;48.406;10.820;2022-07-17T12:36:15;2.13;;;1.60;;
11191;SDS011;5652;48.406;10.820;2022-07-17T12:38:43;4.63;;;1.73;;
11191;SDS011;5652;48.406;10.820;2022-07-17T12:41:10;3.20;;;1.70;;
11191;SDS011;5652;48.406;10.820;2022-07-17T12:43:38;2.50;;;1.50;;
11191;SDS011;5652;48.406;10.820;2022-07-17T12:46:06;2.05;;;1.50;;
11191;SDS011;5652;48.406;10.820;2022-07-17T12:48:33;2.20;;;1.70;;
11191;SDS011;5652;48.406;10.820;2022-07-17T12:51:03;2.97;;;1.73;;
11191;SDS011;5652;48.406;10.820;2022-07-17T12:53:30;2.08;;;1.40;;
11191;SDS011;5652;48.406;10.820;2022-07-17T12:55:57;1.70;;;1.40;;
11191;SDS011;5652;48.406;10.820;2022-07-17T12:58:24;1.88;;;1.50;;
11191;SDS011;5652;48.406;10.820;2022-07-17T13:00:54;2.17;;;1.40;;
11191;SDS011;5652;48.406;10.820;2022-07-17T13:03:21;3.20;;;1.60;;
11191;SDS011;5652;48.406;10.820;2022-07-17T13:05:48;2.17;;;1.55;;
11191;SDS011;5652;48.406;10.820;2022-07-17T13:08:15;2.40;;;1.50;;
11191;SDS011;5652;48.406;10.820;2022-07-17T13:10:42;2.78;;;1.80;;
11191;SDS011;5652;48.406;10.820;2022-07-17T13:13:10;3.20;;;2.00;;
11191;SDS011;5652;48.406;10.820;2022-07-17T13:15:37;6.10;;;2.08;;
11191;SDS011;5652;48.406;10.820;2022-07-17T13:18:06;2.50;;;1.80;;
11191;SDS011;5652;48.406;10.820;2022-07-17T13:20:33;2.85;;;1.80;;
11191;SDS011;5652;48.406;10.820;2022-07-17T13:23:00;3.15;;;2.00;;
11191;SDS011;5652;48.406;10.820;2022-07-17T13:25:28;2.05;;;1.65;;
11191;SDS011;5652;48.406;10.820;2022-07-17T13:27:55;3.83;;;1.70;;
11191;SDS011;5652;48.406;10.820;2022-07-17T13:30:22;1.90;;;1.60;;
11191;SDS011;5652;48.406;10.820;2022-07-17T13:32:49;3.20;;;1.80;;
11191;SDS011;5652;48.406;10.820;2022-07-17T13:35:18;3.20;;;1.77;;
11191;SDS011;5652;48.406;10.820;2022-07-17T13:37:45;2.15;;;1.50;;
11191;SDS011;5652;48.406;10.820;2022-07-17T13:40:12;2.95;;;1.58;;
11191;SDS011;5652;48.406;10.820;2022-07-17T13:42:39;1.83;;;1.50;;
11191;SDS011;5652;48.406;10.820;2022-07-17T13:45:07;2.35;;;1.65;;
11191;SDS011;5652;48.406;10.820;2022-07-17T13:47:34;4.00;;;1.90;;
11191;SDS011;5652;48.406;10.820;2022-07-17T13:50:01;3.67;;;1.70;;
11191;SDS011;5652;48.406;10.820;2022-07-17T13:52:30;2.13;;;1.70;;
11191;SDS011;5652;48.406;10.820;2022-07-17T13:54:57;2.08;;;1.70;;
11191;SDS011;5652;48.406;10.820;2022-07-17T13:57:25;2.65;;;1.60;;
11191;SDS011;5652;48.406;10.820;2022-07-17T13:59:52;2.55;;;1.65;;
11191;SDS011;5652;48.406;10.820;2022-07-17T14:02:19;2.58;;;1.55;;
11191;SDS011;5652;48.406;10.820;2022-07-17T14:04:47;3.00;;;1.60;;
11191;SDS011;5652;48.406;10.820;2022-07-17T14:07:14;1.90;;;1.60;;
11191;SDS011;5652;48.406;10.820;2022-07-17T14:09:42;1.73;;;1.60;;
11191;SDS011;5652;48.406;10.820;2022-07-17T14:12:09;2.25;;;1.67;;
11191;SDS011;5652;48.406;10.820;2022-07-17T14:14:36;2.72;;;1.50;;
11191;SDS011;5652;48.406;10.820;2022-07-17T14:17:03;2.30;;;1.70;;
11191;SDS011;5652;48.406;10.820;2022-07-17T14:19:33;2.28;;;1.40;;
11191;SDS011;5652;48.406;10.820;2022-07-17T14:22:01;2.42;;;1.50;;
11191;SDS011;5652;48.406;10.820;2022-07-17T14:24:28;2.90;;;1.70;;
11191;SDS011;5652;48.406;10.820;2022-07-17T14:26:56;1.60;;;1.40;;
11191;SDS011;5652;48.406;10.820;2022-07-17T14:29:23;1.60;;;1.35;;
11191;SDS011;5652;48.406;10.820;2022-07-17T14:31:50;3.28;;;1.40;;
11191;SDS011;5652;48.406;10.820;2022-07-17T14:34:18;1.52;;;1.35;;
11191;SDS011;5652;48.406;10.820;2022-07-17T14:36:45;2.20;;;1.50;;
11191;SDS011;5652;48.406;10.820;2022-07-17T14:39:13;2.00;;;1.40;;
11191;SDS011;5652;48.406;10.820;2022-07-17T14:41:40;1.85;;;1.30;;
11191;SDS011;5652;48.406;10.820;2022-07-17T14:44:11;1.50;;;1.40;;
11191;SDS011;5652;48.406;10.820;2022-07-17T14:46:38;2.40;;;1.40;;
11191;SDS011;5652;48.406;10.820;2022-07-17T14:49:05;2.10;;;1.35;;
11191;SDS011;5652;48.406;10.820;2022-07-17T14:51:33;1.92;;;1.40;;